sensor_id;sensor_type;location;lat;lon;timestamp;pressure;altitude;pressure_sealevel;temperature;humidity
3434;BME280;1730;41.932;25.548;2023-01-30T00:00:25;101279.50;;;4.90;100.00
3434;BME280;1730;41.932;25.548;2023-01-30T00:02:51;101292.44;;;4.99;100.00
3434;BME280;1730;41.932;25.548;2023-01-30T00:05:17;101277.75;;;4.89;100.00
3434;BME280;1730;41.932;25.548;2023-01-30T00:07:45;101263.06;;;4.79;100.00
3434;BME280;1730;41.932;25.548;2023-01-30T00:10:10;101255.66;;;4.86;100.00
3434;BME280;1730;41.932;25.548;2023-01-30T00:12:36;101263.69;;;4.47;100.00
3434;BME280;1730;41.932;25.548;2023-01-30T00:15:02;101314.00;;;4.36;100.00
3434;BME280;1730;41.932;25.548;2023-01-30T00:17:28;101321.03;;;4.38;100.00
3434;BME280;1730;41.932;25.548;2023-01-30T00:19:54;101378.44;;;4.48;100.00
3434;BME280;1730;41.932;25.548;2023-01-30T00:22:19;101448.91;;;4.66;100.00
3434;BME280;1730;41.932;25.548;2023-01-30T00:24:45;101424.69;;;4.29;100.00
3434;BME280;1730;41.932;25.548;2023-01-30T00:27:10;101421.28;;;4.03;100.00
3434;BME280;1730;41.932;25.548;2023-01-30T00:29:36;101537.69;;;4.29;100.00
3434;BME280;1730;41.932;25.548;2023-01-30T00:32:02;101577.50;;;4.35;100.00
3434;BME280;1730;41.932;25.548;2023-01-30T00:34:28;101590.59;;;4.65;100.00
3434;BME280;1730;41.932;25.548;2023-01-30T00:36:53;101586.66;;;4.51;100.00
3434;BME280;1730;41.932;25.548;2023-01-30T00:39:19;101565.09;;;4.34;100.00
3434;BME280;1730;41.932;25.548;2023-01-30T00:41:45;101597.31;;;4.30;100.00
3434;BME280;1730;41.932;25.548;2023-01-30T00:44:29;101631.53;;;4.19;100.00
3434;BME280;1730;41.932;25.548;2023-01-30T00:47:13;101415.47;;;2.48;100.00
3434;BME280;1730;41.932;25.548;2023-01-30T00:49:39;101693.94;;;4.16;100.00
3434;BME280;1730;41.932;25.548;2023-01-30T00:52:06;101761.97;;;4.04;100.00
3434;BME280;1730;41.932;25.548;2023-01-30T00:54:32;101821.78;;;4.50;100.00
3434;BME280;1730;41.932;25.548;2023-01-30T00:56:58;101840.34;;;4.28;100.00
3434;BME280;1730;41.932;25.548;2023-01-30T00:59:25;101852.97;;;4.23;100.00
3434;BME280;1730;41.932;25.548;2023-01-30T01:01:50;101879.22;;;4.37;100.00
3434;BME280;1730;41.932;25.548;2023-01-30T01:04:16;101902.38;;;4.36;100.00
3434;BME280;1730;41.932;25.548;2023-01-30T01:06:41;101879.41;;;4.57;100.00
3434;BME280;1730;41.932;25.548;2023-01-30T01:09:10;101856.38;;;4.53;100.00
3434;BME280;1730;41.932;25.548;2023-01-30T01:11:36;101841.41;;;4.49;100.00
3434;BME280;1730;41.932;25.548;2023-01-30T01:14:04;101820.94;;;4.48;100.00
3434;BME280;1730;41.932;25.548;2023-01-30T01:16:31;101791.06;;;4.62;100.00
3434;BME280;1730;41.932;25.548;2023-01-30T01:18:57;101755.16;;;4.45;100.00
3434;BME280;1730;41.932;25.548;2023-01-30T01:21:23;101224.81;;;1.44;100.00
3434;BME280;1730;41.932;25.548;2023-01-30T01:23:56;101747.59;;;4.33;100.00
3434;BME280;1730;41.932;25.548;2023-01-30T01:26:22;101694.69;;;4.20;100.00
3434;BME280;1730;41.932;25.548;2023-01-30T01:28:53;101689.06;;;4.27;100.00
3434;BME280;1730;41.932;25.548;2023-01-30T01:31:19;101681.25;;;4.46;100.00
3434;BME280;1730;41.932;25.548;2023-01-30T01:33:44;101669.12;;;4.61;100.00
3434;BME280;1730;41.932;25.548;2023-01-30T01:36:10;101606.47;;;4.46;100.00
3434;BME280;1730;41.932;25.548;2023-01-30T01:38:36;101585.63;;;4.56;100.00
3434;BME280;1730;41.932;25.548;2023-01-30T01:41:03;101563.06;;;4.63;100.00
3434;BME280;1730;41.932;25.548;2023-01-30T01:44:04;101478.44;;;4.20;100.00
3434;BME280;1730;41.932;25.548;2023-01-30T01:46:41;100921.34;;;0.86;100.00
3434;BME280;1730;41.932;25.548;2023-01-30T01:49:21;101476.56;;;4.22;100.00
3434;BME280;1730;41.932;25.548;2023-01-30T01:51:59;101485.97;;;4.32;100.00
3434;BME280;1730;41.932;25.548;2023-01-30T01:54:35;101463.47;;;4.37;100.00
3434;BME280;1730;41.932;25.548;2023-01-30T01:57:10;101367.81;;;3.83;100.00
3434;BME280;1730;41.932;25.548;2023-01-30T01:59:42;101268.00;;;3.45;100.00
3434;BME280;1730;41.932;25.548;2023-01-30T02:02:10;101395.41;;;4.26;100.00
3434;BME280;1730;41.932;25.548;2023-01-30T02:04:44;101406.87;;;4.29;100.00
3434;BME280;1730;41.932;25.548;2023-01-30T02:08:06;101425.59;;;4.49;100.00
3434;BME280;1730;41.932;25.548;2023-01-30T02:13:19;101322.31;;;4.08;100.00
3434;BME280;1730;41.932;25.548;2023-01-30T02:15:45;101350.84;;;4.48;100.00
3434;BME280;1730;41.932;25.548;2023-01-30T02:18:12;101294.56;;;4.12;100.00
3434;BME280;1730;41.932;25.548;2023-01-30T02:26:46;101325.34;;;4.41;100.00
3434;BME280;1730;41.932;25.548;2023-01-30T02:38:08;101263.28;;;4.16;100.00
3434;BME280;1730;41.932;25.548;2023-01-30T02:43:32;101299.28;;;4.47;100.00
3434;BME280;1730;41.932;25.548;2023-01-30T02:46:24;101250.25;;;4.28;100.00
3434;BME280;1730;41.932;25.548;2023-01-30T02:48:56;101232.69;;;4.23;100.00
3434;BME280;1730;41.932;25.548;2023-01-30T02:51:33;101234.59;;;4.21;100.00
3434;BME280;1730;41.932;25.548;2023-01-30T02:54:00;101235.97;;;4.29;100.00
3434;BME280;1730;41.932;25.548;2023-01-30T02:56:26;101253.56;;;4.53;100.00
3434;BME280;1730;41.932;25.548;2023-01-30T02:58:56;101248.94;;;4.38;100.00
3434;BME280;1730;41.932;25.548;2023-01-30T03:02:05;101227.38;;;4.43;100.00
3434;BME280;1730;41.932;25.548;2023-01-30T03:10:42;101196.13;;;4.25;100.00
3434;BME280;1730;41.932;25.548;2023-01-30T03:15:58;101232.28;;;4.32;100.00
3434;BME280;1730;41.932;25.548;2023-01-30T03:18:26;101221.66;;;4.30;100.00
3434;BME280;1730;41.932;25.548;2023-01-30T03:20:53;101235.12;;;4.68;100.00
3434;BME280;1730;41.932;25.548;2023-01-30T03:23:19;100983.19;;;3.55;100.00
3434;BME280;1730;41.932;25.548;2023-01-30T03:25:45;101031.50;;;3.86;100.00
3434;BME280;1730;41.932;25.548;2023-01-30T03:28:16;101157.88;;;4.63;100.00
3434;BME280;1730;41.932;25.548;2023-01-30T03:30:43;101093.50;;;4.30;100.00
3434;BME280;1730;41.932;25.548;2023-01-30T03:33:09;101131.84;;;4.29;100.00
3434;BME280;1730;41.932;25.548;2023-01-30T03:35:34;101111.78;;;4.21;100.00
3434;BME280;1730;41.932;25.548;2023-01-30T03:38:00;101143.66;;;4.24;100.00
3434;BME280;1730;41.932;25.548;2023-01-30T03:40:26;101167.44;;;4.48;100.00
3434;BME280;1730;41.932;25.548;2023-01-30T03:42:51;100879.56;;;2.48;100.00
3434;BME280;1730;41.932;25.548;2023-01-30T03:45:17;100996.56;;;3.13;100.00
3434;BME280;1730;41.932;25.548;2023-01-30T03:47:42;101104.97;;;3.95;100.00
3434;BME280;1730;41.932;25.548;2023-01-30T03:50:08;101132.28;;;4.00;100.00
3434;BME280;1730;41.932;25.548;2023-01-30T03:52:35;101189.41;;;4.16;100.00
3434;BME280;1730;41.932;25.548;2023-01-30T03:55:02;101137.28;;;3.87;100.00
3434;BME280;1730;41.932;25.548;2023-01-30T03:57:28;101198.53;;;4.11;100.00
3434;BME280;1730;41.932;25.548;2023-01-30T03:59:54;101176.13;;;3.94;100.00
3434;BME280;1730;41.932;25.548;2023-01-30T04:02:21;101261.66;;;4.32;100.00
3434;BME280;1730;41.932;25.548;2023-01-30T04:04:48;101255.97;;;4.60;100.00
3434;BME280;1730;41.932;25.548;2023-01-30T04:07:14;101214.00;;;4.23;100.00
3434;BME280;1730;41.932;25.548;2023-01-30T04:09:40;101198.88;;;4.23;100.00
3434;BME280;1730;41.932;25.548;2023-01-30T04:12:06;101118.78;;;3.22;100.00
3434;BME280;1730;41.932;25.548;2023-01-30T04:14:31;101276.53;;;4.17;100.00
3434;BME280;1730;41.932;25.548;2023-01-30T04:16:57;101259.66;;;4.37;100.00
3434;BME280;1730;41.932;25.548;2023-01-30T04:19:22;101136.78;;;3.59;100.00
3434;BME280;1730;41.932;25.548;2023-01-30T04:21:48;101267.59;;;4.18;100.00
3434;BME280;1730;41.932;25.548;2023-01-30T04:24:13;101261.00;;;4.27;100.00
3434;BME280;1730;41.932;25.548;2023-01-30T04:26:39;101253.56;;;4.13;100.00
3434;BME280;1730;41.932;25.548;2023-01-30T04:29:05;101268.16;;;4.46;100.00
3434;BME280;1730;41.932;25.548;2023-01-30T04:31:31;101045.25;;;2.96;100.00
3434;BME280;1730;41.932;25.548;2023-01-30T04:33:57;100757.16;;;1.86;100.00
3434;BME280;1730;41.932;25.548;2023-01-30T04:36:23;101179.75;;;4.32;100.00
3434;BME280;1730;41.932;25.548;2023-01-30T04:38:48;101152.44;;;4.46;100.00
3434;BME280;1730;41.932;25.548;2023-01-30T04:41:14;101091.22;;;4.41;100.00
3434;BME280;1730;41.932;25.548;2023-01-30T04:43:39;101058.03;;;4.47;100.00
3434;BME280;1730;41.932;25.548;2023-01-30T04:46:05;100934.03;;;4.17;100.00
3434;BME280;1730;41.932;25.548;2023-01-30T04:48:31;100957.25;;;4.50;100.00
3434;BME280;1730;41.932;25.548;2023-01-30T04:50:56;100914.06;;;4.60;100.00
3434;BME280;1730;41.932;25.548;2023-01-30T04:53:23;100883.66;;;4.45;100.00
3434;BME280;1730;41.932;25.548;2023-01-30T04:55:49;100821.19;;;4.30;100.00
3434;BME280;1730;41.932;25.548;2023-01-30T04:58:16;100823.56;;;4.19;100.00
3434;BME280;1730;41.932;25.548;2023-01-30T05:00:44;100806.28;;;4.26;100.00
3434;BME280;1730;41.932;25.548;2023-01-30T05:03:11;100807.00;;;4.30;100.00
3434;BME280;1730;41.932;25.548;2023-01-30T05:05:36;100801.28;;;4.20;100.00
3434;BME280;1730;41.932;25.548;2023-01-30T05:08:02;100814.16;;;4.12;100.00
3434;BME280;1730;41.932;25.548;2023-01-30T05:10:28;100749.56;;;3.87;100.00
3434;BME280;1730;41.932;25.548;2023-01-30T05:12:53;100813.19;;;4.30;100.00
3434;BME280;1730;41.932;25.548;2023-01-30T05:15:19;100789.78;;;4.01;100.00
3434;BME280;1730;41.932;25.548;2023-01-30T05:17:44;100766.69;;;4.00;100.00
3434;BME280;1730;41.932;25.548;2023-01-30T05:20:11;100794.66;;;4.10;100.00
3434;BME280;1730;41.932;25.548;2023-01-30T05:22:37;100766.78;;;3.98;100.00
3434;BME280;1730;41.932;25.548;2023-01-30T05:25:03;100815.47;;;4.03;100.00
3434;BME280;1730;41.932;25.548;2023-01-30T05:27:30;100786.66;;;4.10;100.00
3434;BME280;1730;41.932;25.548;2023-01-30T05:29:57;100626.53;;;3.07;100.00
3434;BME280;1730;41.932;25.548;2023-01-30T05:32:23;100817.41;;;4.00;100.00
3434;BME280;1730;41.932;25.548;2023-01-30T05:34:51;100812.81;;;4.03;100.00
3434;BME280;1730;41.932;25.548;2023-01-30T05:37:17;100565.75;;;2.60;100.00
3434;BME280;1730;41.932;25.548;2023-01-30T05:39:42;100859.88;;;4.04;100.00
3434;BME280;1730;41.932;25.548;2023-01-30T05:42:08;100790.03;;;3.78;100.00
3434;BME280;1730;41.932;25.548;2023-01-30T05:44:33;100893.34;;;4.12;100.00
3434;BME280;1730;41.932;25.548;2023-01-30T05:46:59;100881.34;;;4.20;100.00
3434;BME280;1730;41.932;25.548;2023-01-30T05:49:25;100861.09;;;4.16;100.00
3434;BME280;1730;41.932;25.548;2023-01-30T05:51:50;100870.81;;;4.17;100.00
3434;BME280;1730;41.932;25.548;2023-01-30T05:54:16;100897.28;;;4.22;100.00
3434;BME280;1730;41.932;25.548;2023-01-30T05:56:41;100850.63;;;4.12;100.00
3434;BME280;1730;41.932;25.548;2023-01-30T05:59:10;100848.44;;;4.02;100.00
3434;BME280;1730;41.932;25.548;2023-01-30T06:01:36;100709.50;;;3.35;100.00
3434;BME280;1730;41.932;25.548;2023-01-30T06:04:01;100824.41;;;4.02;100.00
3434;BME280;1730;41.932;25.548;2023-01-30T06:06:28;100769.94;;;3.89;100.00
3434;BME280;1730;41.932;25.548;2023-01-30T06:08:55;100685.00;;;3.46;100.00
3434;BME280;1730;41.932;25.548;2023-01-30T06:11:22;100793.88;;;4.08;100.00
3434;BME280;1730;41.932;25.548;2023-01-30T06:13:49;100788.00;;;4.19;100.00
3434;BME280;1730;41.932;25.548;2023-01-30T06:16:16;100774.41;;;4.23;100.00
3434;BME280;1730;41.932;25.548;2023-01-30T06:18:42;100754.78;;;4.24;100.00
3434;BME280;1730;41.932;25.548;2023-01-30T06:21:08;100749.44;;;3.90;100.00
3434;BME280;1730;41.932;25.548;2023-01-30T06:23:34;100741.34;;;3.74;100.00
3434;BME280;1730;41.932;25.548;2023-01-30T06:26:00;100776.88;;;3.75;100.00
3434;BME280;1730;41.932;25.548;2023-01-30T06:28:26;100807.81;;;3.60;100.00
3434;BME280;1730;41.932;25.548;2023-01-30T06:30:53;100836.09;;;3.64;100.00
3434;BME280;1730;41.932;25.548;2023-01-30T06:33:19;100885.72;;;3.85;100.00
3434;BME280;1730;41.932;25.548;2023-01-30T06:58:55;100816.87;;;4.45;100.00
3434;BME280;1730;41.932;25.548;2023-01-30T07:06:32;100628.41;;;4.41;100.00
3434;BME280;1730;41.932;25.548;2023-01-30T07:59:24;100376.31;;;4.75;100.00
3434;BME280;1730;41.932;25.548;2023-01-30T08:10:09;100143.28;;;5.39;100.00
3434;BME280;1730;41.932;25.548;2023-01-30T08:12:35;100060.91;;;5.05;100.00
3434;BME280;1730;41.932;25.548;2023-01-30T08:20:32;99937.91;;;5.57;100.00
3434;BME280;1730;41.932;25.548;2023-01-30T08:22:59;99725.72;;;4.20;100.00
3434;BME280;1730;41.932;25.548;2023-01-30T08:30:59;99854.63;;;6.23;100.00
3434;BME280;1730;41.932;25.548;2023-01-30T08:38:36;99720.88;;;5.50;100.00
3434;BME280;1730;41.932;25.548;2023-01-30T08:41:05;99719.09;;;5.62;100.00
3434;BME280;1730;41.932;25.548;2023-01-30T08:43:34;99680.97;;;5.71;100.00
3434;BME280;1730;41.932;25.548;2023-01-30T08:46:01;98998.56;;;1.17;100.00
3434;BME280;1730;41.932;25.548;2023-01-30T08:48:32;99053.41;;;1.56;100.00
3434;BME280;1730;41.932;25.548;2023-01-30T08:50:59;99516.75;;;3.94;100.00
3434;BME280;1730;41.932;25.548;2023-01-30T08:53:28;99169.13;;;2.62;100.00
3434;BME280;1730;41.932;25.548;2023-01-30T08:56:06;99659.50;;;6.07;100.00
3434;BME280;1730;41.932;25.548;2023-01-30T08:58:34;99628.91;;;5.87;100.00
3434;BME280;1730;41.932;25.548;2023-01-30T09:01:04;99623.56;;;5.64;100.00
3434;BME280;1730;41.932;25.548;2023-01-30T09:03:30;99588.19;;;5.71;100.00
3434;BME280;1730;41.932;25.548;2023-01-30T09:05:57;99576.72;;;5.58;100.00
3434;BME280;1730;41.932;25.548;2023-01-30T09:08:23;99578.25;;;5.84;100.00
3434;BME280;1730;41.932;25.548;2023-01-30T09:10:48;99572.59;;;5.89;100.00
3434;BME280;1730;41.932;25.548;2023-01-30T09:13:14;99462.53;;;5.25;100.00
3434;BME280;1730;41.932;25.548;2023-01-30T09:15:41;99556.25;;;5.81;100.00
3434;BME280;1730;41.932;25.548;2023-01-30T09:18:06;99503.47;;;5.26;100.00
3434;BME280;1730;41.932;25.548;2023-01-30T09:20:32;99190.59;;;3.21;100.00
3434;BME280;1730;41.932;25.548;2023-01-30T09:22:58;99515.47;;;5.20;100.00
3434;BME280;1730;41.932;25.548;2023-01-30T09:25:24;99337.66;;;4.12;100.00
3434;BME280;1730;41.932;25.548;2023-01-30T09:27:50;99522.72;;;5.42;100.00
3434;BME280;1730;41.932;25.548;2023-01-30T09:30:16;99333.62;;;4.30;100.00
3434;BME280;1730;41.932;25.548;2023-01-30T09:32:42;99518.47;;;5.39;100.00
3434;BME280;1730;41.932;25.548;2023-01-30T09:35:08;99508.09;;;5.70;100.00
3434;BME280;1730;41.932;25.548;2023-01-30T09:37:34;99376.63;;;4.73;100.00
3434;BME280;1730;41.932;25.548;2023-01-30T09:39:59;99498.97;;;5.26;100.00
3434;BME280;1730;41.932;25.548;2023-01-30T09:42:48;99450.47;;;4.85;100.00
3434;BME280;1730;41.932;25.548;2023-01-30T09:45:28;99500.81;;;5.26;100.00
3434;BME280;1730;41.932;25.548;2023-01-30T09:51:09;99438.75;;;5.67;100.00
3434;BME280;1730;41.932;25.548;2023-01-30T09:54:16;99460.53;;;5.84;100.00
3434;BME280;1730;41.932;25.548;2023-01-30T09:56:42;99400.56;;;5.31;100.00
3434;BME280;1730;41.932;25.548;2023-01-30T09:59:22;99434.50;;;5.64;100.00
3434;BME280;1730;41.932;25.548;2023-01-30T10:02:12;99420.06;;;5.89;100.00
3434;BME280;1730;41.932;25.548;2023-01-30T10:04:46;99396.97;;;5.99;100.00
3434;BME280;1730;41.932;25.548;2023-01-30T10:12:57;99391.81;;;5.63;100.00
3434;BME280;1730;41.932;25.548;2023-01-30T10:15:35;99388.19;;;5.41;100.00
3434;BME280;1730;41.932;25.548;2023-01-30T10:26:09;99078.69;;;3.80;100.00
3434;BME280;1730;41.932;25.548;2023-01-30T10:29:06;99367.53;;;5.88;100.00
3434;BME280;1730;41.932;25.548;2023-01-30T10:31:46;99351.59;;;5.42;100.00
3434;BME280;1730;41.932;25.548;2023-01-30T10:34:17;99339.91;;;5.54;100.00
3434;BME280;1730;41.932;25.548;2023-01-30T10:36:55;98954.88;;;3.15;100.00
3434;BME280;1730;41.932;25.548;2023-01-30T10:39:43;99278.31;;;5.22;100.00
3434;BME280;1730;41.932;25.548;2023-01-30T10:42:30;99322.06;;;5.43;100.00
3434;BME280;1730;41.932;25.548;2023-01-30T10:45:07;99234.94;;;4.74;100.00
3434;BME280;1730;41.932;25.548;2023-01-30T10:50:17;99326.03;;;5.94;100.00
3434;BME280;1730;41.932;25.548;2023-01-30T10:52:55;99313.13;;;6.10;100.00
3434;BME280;1730;41.932;25.548;2023-01-30T10:55:34;99285.75;;;6.06;100.00
3434;BME280;1730;41.932;25.548;2023-01-30T11:01:15;99267.47;;;6.11;100.00
3434;BME280;1730;41.932;25.548;2023-01-30T11:03:52;99109.81;;;5.24;100.00
3434;BME280;1730;41.932;25.548;2023-01-30T11:06:23;99228.25;;;6.21;100.00
3434;BME280;1730;41.932;25.548;2023-01-30T11:08:50;99220.12;;;5.80;100.00
3434;BME280;1730;41.932;25.548;2023-01-30T11:14:14;99234.13;;;5.83;100.00
3434;BME280;1730;41.932;25.548;2023-01-30T11:16:43;99211.38;;;5.89;100.00
3434;BME280;1730;41.932;25.548;2023-01-30T11:19:10;99197.38;;;5.85;100.00
3434;BME280;1730;41.932;25.548;2023-01-30T11:21:36;99191.69;;;6.11;100.00
3434;BME280;1730;41.932;25.548;2023-01-30T11:24:20;99041.13;;;5.35;100.00
3434;BME280;1730;41.932;25.548;2023-01-30T11:26:47;99134.91;;;5.75;100.00
3434;BME280;1730;41.932;25.548;2023-01-30T11:29:42;99171.59;;;5.96;100.00
3434;BME280;1730;41.932;25.548;2023-01-30T11:32:27;99203.84;;;5.72;100.00
3434;BME280;1730;41.932;25.548;2023-01-30T11:37:44;99051.31;;;5.10;100.00
3434;BME280;1730;41.932;25.548;2023-01-30T11:43:00;99176.72;;;6.50;100.00
3434;BME280;1730;41.932;25.548;2023-01-30T11:45:26;99149.91;;;6.19;100.00
3434;BME280;1730;41.932;25.548;2023-01-30T11:47:59;99153.63;;;6.07;100.00
3434;BME280;1730;41.932;25.548;2023-01-30T11:50:32;99147.31;;;6.08;100.00
3434;BME280;1730;41.932;25.548;2023-01-30T11:53:01;99137.75;;;6.15;100.00
3434;BME280;1730;41.932;25.548;2023-01-30T11:55:34;98958.78;;;5.29;100.00
3434;BME280;1730;41.932;25.548;2023-01-30T11:58:05;99157.22;;;6.68;100.00
3434;BME280;1730;41.932;25.548;2023-01-30T12:00:42;98656.78;;;3.87;100.00
3434;BME280;1730;41.932;25.548;2023-01-30T12:03:15;98738.41;;;4.31;100.00
3434;BME280;1730;41.932;25.548;2023-01-30T12:05:44;98987.66;;;6.38;100.00
3434;BME280;1730;41.932;25.548;2023-01-30T12:08:25;99082.66;;;6.73;100.00
3434;BME280;1730;41.932;25.548;2023-01-30T12:11:22;99080.75;;;6.55;100.00
3434;BME280;1730;41.932;25.548;2023-01-30T12:15:02;98450.94;;;2.37;100.00
3434;BME280;1730;41.932;25.548;2023-01-30T12:17:14;99166.78;;;6.41;100.00
3434;BME280;1730;41.932;25.548;2023-01-30T12:26:06;99061.94;;;6.36;100.00
3434;BME280;1730;41.932;25.548;2023-01-30T12:28:45;99029.50;;;6.69;100.00
3434;BME280;1730;41.932;25.548;2023-01-30T12:31:43;99048.50;;;6.56;100.00
3434;BME280;1730;41.932;25.548;2023-01-30T12:34:11;98888.25;;;6.02;100.00
3434;BME280;1730;41.932;25.548;2023-01-30T12:36:46;99046.38;;;6.60;100.00
3434;BME280;1730;41.932;25.548;2023-01-30T12:48:09;99036.16;;;6.84;100.00
3434;BME280;1730;41.932;25.548;2023-01-30T12:50:56;99041.69;;;7.11;100.00
3434;BME280;1730;41.932;25.548;2023-01-30T12:59:47;99021.38;;;7.09;100.00
3434;BME280;1730;41.932;25.548;2023-01-30T13:02:31;99006.16;;;7.09;100.00
3434;BME280;1730;41.932;25.548;2023-01-30T13:10:27;98893.06;;;5.78;100.00
3434;BME280;1730;41.932;25.548;2023-01-30T13:13:16;98678.25;;;4.48;100.00
3434;BME280;1730;41.932;25.548;2023-01-30T13:16:11;99004.56;;;5.98;100.00
3434;BME280;1730;41.932;25.548;2023-01-30T13:18:55;98990.47;;;5.96;100.00
3434;BME280;1730;41.932;25.548;2023-01-30T13:21:36;98985.97;;;6.37;100.00
3434;BME280;1730;41.932;25.548;2023-01-30T13:26:51;98985.47;;;6.52;100.00
3434;BME280;1730;41.932;25.548;2023-01-30T13:29:30;98974.25;;;6.18;100.00
3434;BME280;1730;41.932;25.548;2023-01-30T13:32:01;98954.97;;;5.94;100.00
3434;BME280;1730;41.932;25.548;2023-01-30T13:34:34;99015.44;;;6.06;100.00
3434;BME280;1730;41.932;25.548;2023-01-30T13:37:18;98866.44;;;5.16;100.00
3434;BME280;1730;41.932;25.548;2023-01-30T13:45:03;98982.97;;;6.20;100.00
3434;BME280;1730;41.932;25.548;2023-01-30T13:52:54;99004.78;;;5.65;100.00
3434;BME280;1730;41.932;25.548;2023-01-30T13:58:00;98594.69;;;3.55;100.00
3434;BME280;1730;41.932;25.548;2023-01-30T14:00:34;98968.06;;;5.97;100.00
3434;BME280;1730;41.932;25.548;2023-01-30T14:08:22;98957.25;;;5.78;100.00
3434;BME280;1730;41.932;25.548;2023-01-30T14:10:50;98916.06;;;5.60;100.00
3434;BME280;1730;41.932;25.548;2023-01-30T14:13:16;98961.09;;;5.85;100.00
3434;BME280;1730;41.932;25.548;2023-01-30T14:15:58;98911.41;;;5.62;100.00
3434;BME280;1730;41.932;25.548;2023-01-30T14:18:28;98937.06;;;6.25;100.00
3434;BME280;1730;41.932;25.548;2023-01-30T14:37:44;98962.03;;;5.95;100.00
3434;BME280;1730;41.932;25.548;2023-01-30T14:59:08;98974.59;;;6.04;100.00
3434;BME280;1730;41.932;25.548;2023-01-30T15:04:46;98908.91;;;5.91;100.00
3434;BME280;1730;41.932;25.548;2023-01-30T15:07:21;98915.53;;;5.66;100.00
3434;BME280;1730;41.932;25.548;2023-01-30T15:10:00;98922.09;;;5.82;100.00
3434;BME280;1730;41.932;25.548;2023-01-30T15:15:22;98897.47;;;5.88;100.00
3434;BME280;1730;41.932;25.548;2023-01-30T15:18:14;98929.78;;;5.76;100.00
3434;BME280;1730;41.932;25.548;2023-01-30T15:31:58;98901.38;;;6.05;100.00
3434;BME280;1730;41.932;25.548;2023-01-30T15:34:29;98901.19;;;5.97;100.00
3434;BME280;1730;41.932;25.548;2023-01-30T15:36:56;98897.41;;;5.69;100.00
3434;BME280;1730;41.932;25.548;2023-01-30T15:39:28;98763.06;;;5.16;100.00
3434;BME280;1730;41.932;25.548;2023-01-30T15:42:03;98903.28;;;5.94;100.00
3434;BME280;1730;41.932;25.548;2023-01-30T15:50:11;98955.59;;;5.56;100.00
3434;BME280;1730;41.932;25.548;2023-01-30T15:52:48;98923.59;;;5.24;100.00
3434;BME280;1730;41.932;25.548;2023-01-30T15:55:30;98830.47;;;4.58;100.00
3434;BME280;1730;41.932;25.548;2023-01-30T15:58:08;98967.72;;;5.60;100.00
3434;BME280;1730;41.932;25.548;2023-01-30T16:00:52;98926.47;;;5.83;100.00
3434;BME280;1730;41.932;25.548;2023-01-30T16:03:25;98920.06;;;5.75;100.00
3434;BME280;1730;41.932;25.548;2023-01-30T16:05:53;98888.84;;;5.24;100.00
3434;BME280;1730;41.932;25.548;2023-01-30T16:11:42;98612.28;;;3.46;100.00
3434;BME280;1730;41.932;25.548;2023-01-30T16:14:12;98926.53;;;5.42;100.00
3434;BME280;1730;41.932;25.548;2023-01-30T16:16:42;98921.38;;;5.29;100.00
3434;BME280;1730;41.932;25.548;2023-01-30T16:19:24;98941.53;;;5.33;100.00
3434;BME280;1730;41.932;25.548;2023-01-30T16:22:03;98800.59;;;4.11;100.00
3434;BME280;1730;41.932;25.548;2023-01-30T16:24:31;98928.06;;;4.50;100.00
3434;BME280;1730;41.932;25.548;2023-01-30T16:27:01;98930.12;;;4.79;100.00
3434;BME280;1730;41.932;25.548;2023-01-30T16:29:30;98931.84;;;4.80;100.00
3434;BME280;1730;41.932;25.548;2023-01-30T16:32:01;98929.50;;;4.86;100.00
3434;BME280;1730;41.932;25.548;2023-01-30T16:34:39;98930.97;;;4.79;100.00
3434;BME280;1730;41.932;25.548;2023-01-30T16:37:26;98872.78;;;4.30;100.00
3434;BME280;1730;41.932;25.548;2023-01-30T16:40:41;98924.84;;;4.68;100.00
3434;BME280;1730;41.932;25.548;2023-01-30T16:43:19;99016.75;;;4.54;100.00
3434;BME280;1730;41.932;25.548;2023-01-30T16:48:28;99010.94;;;4.38;100.00
3434;BME280;1730;41.932;25.548;2023-01-30T16:53:25;98965.03;;;4.12;100.00
3434;BME280;1730;41.932;25.548;2023-01-30T16:56:09;98940.63;;;4.17;100.00
3434;BME280;1730;41.932;25.548;2023-01-30T16:58:39;98793.00;;;3.41;100.00
3434;BME280;1730;41.932;25.548;2023-01-30T17:01:06;98878.00;;;3.89;100.00
3434;BME280;1730;41.932;25.548;2023-01-30T17:03:42;98952.38;;;4.14;100.00
3434;BME280;1730;41.932;25.548;2023-01-30T17:06:21;98941.09;;;4.22;100.00
3434;BME280;1730;41.932;25.548;2023-01-30T17:08:55;98926.56;;;4.15;100.00
3434;BME280;1730;41.932;25.548;2023-01-30T17:11:39;98957.00;;;4.01;100.00
3434;BME280;1730;41.932;25.548;2023-01-30T17:14:23;98947.19;;;4.01;100.00
3434;BME280;1730;41.932;25.548;2023-01-30T17:17:04;98898.72;;;3.74;100.00
3434;BME280;1730;41.932;25.548;2023-01-30T17:19:32;98938.72;;;3.74;100.00
3434;BME280;1730;41.932;25.548;2023-01-30T17:21:58;98867.44;;;2.98;100.00
3434;BME280;1730;41.932;25.548;2023-01-30T17:24:26;98705.56;;;1.89;100.00
3434;BME280;1730;41.932;25.548;2023-01-30T17:26:55;98776.28;;;2.26;100.00
3434;BME280;1730;41.932;25.548;2023-01-30T17:29:24;98773.19;;;2.09;100.00
3434;BME280;1730;41.932;25.548;2023-01-30T17:31:51;98968.06;;;3.17;100.00
3434;BME280;1730;41.932;25.548;2023-01-30T17:34:17;98661.53;;;1.39;100.00
3434;BME280;1730;41.932;25.548;2023-01-30T17:41:54;98986.50;;;3.42;100.00
3434;BME280;1730;41.932;25.548;2023-01-30T17:44:20;98992.78;;;3.30;100.00
3434;BME280;1730;41.932;25.548;2023-01-30T17:46:47;98994.34;;;3.22;100.00
3434;BME280;1730;41.932;25.548;2023-01-30T17:49:19;98984.63;;;3.09;100.00
3434;BME280;1730;41.932;25.548;2023-01-30T17:51:46;99020.47;;;3.16;100.00
3434;BME280;1730;41.932;25.548;2023-01-30T17:54:12;98996.97;;;3.10;100.00
3434;BME280;1730;41.932;25.548;2023-01-30T17:56:39;99013.66;;;3.36;100.00
3434;BME280;1730;41.932;25.548;2023-01-30T17:59:11;99011.19;;;3.22;100.00
3434;BME280;1730;41.932;25.548;2023-01-30T18:01:39;99011.44;;;3.30;100.00
3434;BME280;1730;41.932;25.548;2023-01-30T18:04:05;99021.22;;;3.18;100.00
3434;BME280;1730;41.932;25.548;2023-01-30T18:06:31;98872.22;;;2.47;100.00
3434;BME280;1730;41.932;25.548;2023-01-30T18:08:58;98619.16;;;0.90;100.00